sensor_id;sensor_type;location;lat;lon;timestamp;P1;durP1;ratioP1;P2;durP2;ratioP2
50128;SDS011;36026;45.478;9.224;2023-07-28T00:03:00;8.05;;;2.58;;
50128;SDS011;36026;45.478;9.224;2023-07-28T00:06:02;7.03;;;2.67;;
50128;SDS011;36026;45.478;9.224;2023-07-28T00:09:03;6.68;;;2.08;;
50128;SDS011;36026;45.478;9.224;2023-07-28T00:12:05;7.20;;;3.00;;
50128;SDS011;36026;45.478;9.224;2023-07-28T00:15:08;11.63;;;3.20;;
50128;SDS011;36026;45.478;9.224;2023-07-28T00:21:11;7.93;;;2.92;;
50128;SDS011;36026;45.478;9.224;2023-07-28T00:24:13;5.15;;;2.78;;
50128;SDS011;36026;45.478;9.224;2023-07-28T00:27:14;5.95;;;2.47;;
50128;SDS011;36026;45.478;9.224;2023-07-28T00:30:17;6.68;;;2.85;;
50128;SDS011;36026;45.478;9.224;2023-07-28T00:33:18;7.13;;;3.55;;
50128;SDS011;36026;45.478;9.224;2023-07-28T00:36:20;5.88;;;3.03;;
50128;SDS011;36026;45.478;9.224;2023-07-28T00:39:21;6.43;;;2.80;;
50128;SDS011;36026;45.478;9.224;2023-07-28T00:42:23;8.65;;;2.95;;
50128;SDS011;36026;45.478;9.224;2023-07-28T00:45:26;7.93;;;4.05;;
50128;SDS011;36026;45.478;9.224;2023-07-28T00:48:27;10.73;;;6.13;;
50128;SDS011;36026;45.478;9.224;2023-07-28T00:51:28;10.55;;;5.53;;
50128;SDS011;36026;45.478;9.224;2023-07-28T00:54:30;10.90;;;6.00;;
50128;SDS011;36026;45.478;9.224;2023-07-28T00:57:32;10.30;;;5.30;;
50128;SDS011;36026;45.478;9.224;2023-07-28T01:00:36;9.83;;;5.60;;
50128;SDS011;36026;45.478;9.224;2023-07-28T01:03:37;8.32;;;4.65;;
50128;SDS011;36026;45.478;9.224;2023-07-28T01:06:41;6.57;;;4.07;;
50128;SDS011;36026;45.478;9.224;2023-07-28T01:09:47;6.82;;;4.60;;
50128;SDS011;36026;45.478;9.224;2023-07-28T01:12:51;11.27;;;4.10;;
50128;SDS011;36026;45.478;9.224;2023-07-28T01:15:54;10.18;;;3.88;;
50128;SDS011;36026;45.478;9.224;2023-07-28T01:18:55;6.47;;;3.72;;
50128;SDS011;36026;45.478;9.224;2023-07-28T01:25:15;5.07;;;2.63;;
50128;SDS011;36026;45.478;9.224;2023-07-28T01:28:20;5.93;;;2.75;;
50128;SDS011;36026;45.478;9.224;2023-07-28T01:31:22;7.00;;;2.58;;
50128;SDS011;36026;45.478;9.224;2023-07-28T01:34:24;7.68;;;2.63;;
50128;SDS011;36026;45.478;9.224;2023-07-28T01:37:25;4.85;;;2.38;;
50128;SDS011;36026;45.478;9.224;2023-07-28T01:40:26;5.43;;;2.20;;
50128;SDS011;36026;45.478;9.224;2023-07-28T01:43:29;4.50;;;2.45;;
50128;SDS011;36026;45.478;9.224;2023-07-28T01:46:30;3.25;;;2.08;;
50128;SDS011;36026;45.478;9.224;2023-07-28T01:49:32;4.97;;;2.20;;
50128;SDS011;36026;45.478;9.224;2023-07-28T01:52:33;8.73;;;2.60;;
50128;SDS011;36026;45.478;9.224;2023-07-28T01:55:35;4.75;;;2.38;;
50128;SDS011;36026;45.478;9.224;2023-07-28T01:58:38;4.75;;;2.28;;
50128;SDS011;36026;45.478;9.224;2023-07-28T02:01:39;5.80;;;2.60;;
50128;SDS011;36026;45.478;9.224;2023-07-28T02:04:41;3.75;;;2.50;;
50128;SDS011;36026;45.478;9.224;2023-07-28T02:07:42;5.68;;;2.33;;
50128;SDS011;36026;45.478;9.224;2023-07-28T02:10:44;7.03;;;2.40;;
50128;SDS011;36026;45.478;9.224;2023-07-28T02:13:47;3.58;;;2.22;;
50128;SDS011;36026;45.478;9.224;2023-07-28T02:16:48;6.40;;;2.33;;
50128;SDS011;36026;45.478;9.224;2023-07-28T02:19:50;6.47;;;2.28;;
50128;SDS011;36026;45.478;9.224;2023-07-28T02:22:51;5.55;;;2.78;;
50128;SDS011;36026;45.478;9.224;2023-07-28T02:25:53;3.65;;;2.28;;
50128;SDS011;36026;45.478;9.224;2023-07-28T02:28:55;5.25;;;2.70;;
50128;SDS011;36026;45.478;9.224;2023-07-28T02:31:57;8.10;;;2.88;;
50128;SDS011;36026;45.478;9.224;2023-07-28T02:34:58;3.80;;;2.55;;
50128;SDS011;36026;45.478;9.224;2023-07-28T02:38:00;7.82;;;2.72;;
50128;SDS011;36026;45.478;9.224;2023-07-28T02:41:01;4.88;;;2.70;;
50128;SDS011;36026;45.478;9.224;2023-07-28T02:44:05;5.22;;;2.75;;
50128;SDS011;36026;45.478;9.224;2023-07-28T02:47:06;5.30;;;2.95;;
50128;SDS011;36026;45.478;9.224;2023-07-28T02:50:08;3.45;;;2.25;;
50128;SDS011;36026;45.478;9.224;2023-07-28T02:53:10;5.43;;;2.60;;
50128;SDS011;36026;45.478;9.224;2023-07-28T02:56:11;5.13;;;2.72;;
50128;SDS011;36026;45.478;9.224;2023-07-28T02:59:14;5.47;;;2.55;;
50128;SDS011;36026;45.478;9.224;2023-07-28T03:02:16;6.35;;;2.65;;
50128;SDS011;36026;45.478;9.224;2023-07-28T03:05:17;4.78;;;2.97;;
50128;SDS011;36026;45.478;9.224;2023-07-28T03:08:19;5.82;;;2.55;;
50128;SDS011;36026;45.478;9.224;2023-07-28T03:11:21;4.03;;;2.40;;
50128;SDS011;36026;45.478;9.224;2023-07-28T03:14:23;10.82;;;2.97;;
50128;SDS011;36026;45.478;9.224;2023-07-28T03:17:25;8.15;;;2.92;;
50128;SDS011;36026;45.478;9.224;2023-07-28T03:20:26;7.82;;;2.92;;
50128;SDS011;36026;45.478;9.224;2023-07-28T03:23:28;3.47;;;2.50;;
50128;SDS011;36026;45.478;9.224;2023-07-28T03:26:29;6.82;;;3.00;;
50128;SDS011;36026;45.478;9.224;2023-07-28T03:29:32;4.82;;;2.67;;
50128;SDS011;36026;45.478;9.224;2023-07-28T03:32:34;4.43;;;2.60;;
50128;SDS011;36026;45.478;9.224;2023-07-28T03:35:35;5.32;;;2.80;;
50128;SDS011;36026;45.478;9.224;2023-07-28T03:38:37;4.95;;;2.70;;
50128;SDS011;36026;45.478;9.224;2023-07-28T03:41:38;6.47;;;2.60;;
50128;SDS011;36026;45.478;9.224;2023-07-28T03:44:41;3.70;;;2.58;;
50128;SDS011;36026;45.478;9.224;2023-07-28T03:47:42;4.85;;;2.92;;
50128;SDS011;36026;45.478;9.224;2023-07-28T03:50:44;3.97;;;2.83;;
50128;SDS011;36026;45.478;9.224;2023-07-28T03:53:45;4.63;;;2.75;;
50128;SDS011;36026;45.478;9.224;2023-07-28T03:56:47;8.05;;;2.95;;
50128;SDS011;36026;45.478;9.224;2023-07-28T03:59:50;6.53;;;3.03;;
50128;SDS011;36026;45.478;9.224;2023-07-28T04:02:51;5.05;;;3.33;;
50128;SDS011;36026;45.478;9.224;2023-07-28T04:05:53;7.55;;;3.13;;
50128;SDS011;36026;45.478;9.224;2023-07-28T04:08:54;5.68;;;3.15;;
50128;SDS011;36026;45.478;9.224;2023-07-28T04:11:55;5.38;;;2.95;;
50128;SDS011;36026;45.478;9.224;2023-07-28T04:14:58;6.93;;;2.80;;
50128;SDS011;36026;45.478;9.224;2023-07-28T04:18:00;5.90;;;3.20;;
50128;SDS011;36026;45.478;9.224;2023-07-28T04:21:01;5.80;;;2.78;;
50128;SDS011;36026;45.478;9.224;2023-07-28T04:24:03;5.85;;;2.63;;
50128;SDS011;36026;45.478;9.224;2023-07-28T04:27:05;4.85;;;3.03;;
50128;SDS011;36026;45.478;9.224;2023-07-28T04:30:09;4.20;;;2.20;;
50128;SDS011;36026;45.478;9.224;2023-07-28T04:33:10;5.95;;;2.55;;
50128;SDS011;36026;45.478;9.224;2023-07-28T04:36:12;6.00;;;3.33;;
50128;SDS011;36026;45.478;9.224;2023-07-28T04:39:13;4.55;;;2.90;;
50128;SDS011;36026;45.478;9.224;2023-07-28T04:42:14;7.35;;;2.85;;
50128;SDS011;36026;45.478;9.224;2023-07-28T04:45:17;4.97;;;2.97;;
50128;SDS011;36026;45.478;9.224;2023-07-28T04:48:19;5.30;;;2.90;;
50128;SDS011;36026;45.478;9.224;2023-07-28T04:51:20;4.28;;;2.88;;
50128;SDS011;36026;45.478;9.224;2023-07-28T04:54:22;4.07;;;2.75;;
50128;SDS011;36026;45.478;9.224;2023-07-28T04:57:23;9.85;;;3.47;;
50128;SDS011;36026;45.478;9.224;2023-07-28T05:00:26;5.00;;;2.67;;
50128;SDS011;36026;45.478;9.224;2023-07-28T05:03:27;4.50;;;2.35;;
50128;SDS011;36026;45.478;9.224;2023-07-28T05:06:29;4.45;;;2.90;;
50128;SDS011;36026;45.478;9.224;2023-07-28T05:09:30;4.63;;;2.63;;
50128;SDS011;36026;45.478;9.224;2023-07-28T05:12:32;4.95;;;2.67;;
50128;SDS011;36026;45.478;9.224;2023-07-28T05:15:35;4.45;;;2.60;;
50128;SDS011;36026;45.478;9.224;2023-07-28T05:18:36;5.88;;;2.78;;
50128;SDS011;36026;45.478;9.224;2023-07-28T05:21:38;6.93;;;2.72;;
50128;SDS011;36026;45.478;9.224;2023-07-28T05:24:39;7.68;;;2.53;;
50128;SDS011;36026;45.478;9.224;2023-07-28T05:27:41;4.63;;;2.55;;
50128;SDS011;36026;45.478;9.224;2023-07-28T05:30:44;6.93;;;2.60;;
50128;SDS011;36026;45.478;9.224;2023-07-28T05:33:45;7.60;;;2.75;;
50128;SDS011;36026;45.478;9.224;2023-07-28T05:36:46;5.63;;;2.78;;
50128;SDS011;36026;45.478;9.224;2023-07-28T05:39:48;7.18;;;2.80;;
50128;SDS011;36026;45.478;9.224;2023-07-28T05:42:49;9.02;;;3.42;;
50128;SDS011;36026;45.478;9.224;2023-07-28T05:45:52;7.97;;;3.42;;
50128;SDS011;36026;45.478;9.224;2023-07-28T05:48:54;5.15;;;3.00;;
50128;SDS011;36026;45.478;9.224;2023-07-28T05:51:56;8.02;;;3.20;;
50128;SDS011;36026;45.478;9.224;2023-07-28T05:54:57;5.43;;;2.67;;
50128;SDS011;36026;45.478;9.224;2023-07-28T05:57:59;5.50;;;3.15;;
50128;SDS011;36026;45.478;9.224;2023-07-28T06:01:01;7.15;;;3.00;;
50128;SDS011;36026;45.478;9.224;2023-07-28T06:04:03;7.43;;;3.83;;
50128;SDS011;36026;45.478;9.224;2023-07-28T06:07:05;6.07;;;3.60;;
50128;SDS011;36026;45.478;9.224;2023-07-28T06:10:07;10.10;;;5.13;;
50128;SDS011;36026;45.478;9.224;2023-07-28T06:13:09;10.90;;;4.60;;
50128;SDS011;36026;45.478;9.224;2023-07-28T06:16:11;6.53;;;3.67;;
50128;SDS011;36026;45.478;9.224;2023-07-28T06:19:13;9.80;;;4.28;;
50128;SDS011;36026;45.478;9.224;2023-07-28T06:22:17;9.57;;;4.63;;
50128;SDS011;36026;45.478;9.224;2023-07-28T06:25:18;12.07;;;4.20;;
50128;SDS011;36026;45.478;9.224;2023-07-28T06:28:21;7.83;;;4.33;;
50128;SDS011;36026;45.478;9.224;2023-07-28T06:31:23;375.70;;;34.97;;
50128;SDS011;36026;45.478;9.224;2023-07-28T06:34:25;53.33;;;47.03;;
50128;SDS011;36026;45.478;9.224;2023-07-28T06:37:26;96.32;;;55.17;;
50128;SDS011;36026;45.478;9.224;2023-07-28T06:40:28;73.35;;;64.70;;
50128;SDS011;36026;45.478;9.224;2023-07-28T06:43:30;17.60;;;13.73;;
50128;SDS011;36026;45.478;9.224;2023-07-28T06:46:32;28.85;;;24.42;;
50128;SDS011;36026;45.478;9.224;2023-07-28T06:49:34;24.92;;;19.17;;
50128;SDS011;36026;45.478;9.224;2023-07-28T06:52:35;23.48;;;19.65;;
50128;SDS011;36026;45.478;9.224;2023-07-28T06:55:37;18.98;;;16.92;;
50128;SDS011;36026;45.478;9.224;2023-07-28T06:58:39;20.75;;;18.65;;
50128;SDS011;36026;45.478;9.224;2023-07-28T07:01:42;18.50;;;13.68;;
50128;SDS011;36026;45.478;9.224;2023-07-28T07:04:43;15.45;;;11.90;;
50128;SDS011;36026;45.478;9.224;2023-07-28T07:07:45;21.88;;;17.35;;
50128;SDS011;36026;45.478;9.224;2023-07-28T07:10:47;11.70;;;7.70;;
50128;SDS011;36026;45.478;9.224;2023-07-28T07:13:48;19.65;;;13.57;;
50128;SDS011;36026;45.478;9.224;2023-07-28T07:16:51;13.40;;;9.18;;
50128;SDS011;36026;45.478;9.224;2023-07-28T07:19:53;12.02;;;8.30;;
50128;SDS011;36026;45.478;9.224;2023-07-28T07:22:54;9.23;;;7.38;;
50128;SDS011;36026;45.478;9.224;2023-07-28T07:25:56;15.15;;;9.50;;
50128;SDS011;36026;45.478;9.224;2023-07-28T07:28:57;11.05;;;6.53;;
50128;SDS011;36026;45.478;9.224;2023-07-28T07:32:00;12.48;;;7.43;;
50128;SDS011;36026;45.478;9.224;2023-07-28T07:35:01;12.07;;;6.25;;
50128;SDS011;36026;45.478;9.224;2023-07-28T07:38:04;12.68;;;8.68;;
50128;SDS011;36026;45.478;9.224;2023-07-28T07:41:08;7.50;;;5.10;;
50128;SDS011;36026;45.478;9.224;2023-07-28T07:44:11;11.00;;;4.63;;
50128;SDS011;36026;45.478;9.224;2023-07-28T07:47:14;13.82;;;5.20;;
50128;SDS011;36026;45.478;9.224;2023-07-28T07:50:16;9.48;;;4.97;;
50128;SDS011;36026;45.478;9.224;2023-07-28T07:53:17;7.65;;;4.38;;
50128;SDS011;36026;45.478;9.224;2023-07-28T07:56:19;7.18;;;4.60;;
50128;SDS011;36026;45.478;9.224;2023-07-28T07:59:20;8.25;;;4.75;;
50128;SDS011;36026;45.478;9.224;2023-07-28T08:02:23;8.73;;;3.83;;
50128;SDS011;36026;45.478;9.224;2023-07-28T08:05:25;12.88;;;4.45;;
50128;SDS011;36026;45.478;9.224;2023-07-28T08:08:26;8.00;;;4.22;;
50128;SDS011;36026;45.478;9.224;2023-07-28T08:11:27;8.65;;;4.97;;
50128;SDS011;36026;45.478;9.224;2023-07-28T08:14:29;8.73;;;4.13;;
50128;SDS011;36026;45.478;9.224;2023-07-28T08:17:32;10.68;;;4.20;;
50128;SDS011;36026;45.478;9.224;2023-07-28T08:23:35;7.97;;;4.25;;
50128;SDS011;36026;45.478;9.224;2023-07-28T08:26:36;9.77;;;4.15;;
50128;SDS011;36026;45.478;9.224;2023-07-28T08:29:38;9.65;;;3.95;;
50128;SDS011;36026;45.478;9.224;2023-07-28T08:32:40;8.30;;;3.58;;
50128;SDS011;36026;45.478;9.224;2023-07-28T08:38:43;8.32;;;3.60;;
50128;SDS011;36026;45.478;9.224;2023-07-28T08:41:45;9.80;;;3.80;;
50128;SDS011;36026;45.478;9.224;2023-07-28T08:44:47;8.95;;;3.83;;
50128;SDS011;36026;45.478;9.224;2023-07-28T08:47:53;7.72;;;4.63;;
50128;SDS011;36026;45.478;9.224;2023-07-28T08:50:55;10.52;;;4.10;;
50128;SDS011;36026;45.478;9.224;2023-07-28T08:53:56;11.73;;;3.60;;
50128;SDS011;36026;45.478;9.224;2023-07-28T08:56:58;7.13;;;3.78;;
50128;SDS011;36026;45.478;9.224;2023-07-28T09:00:06;10.05;;;3.90;;
50128;SDS011;36026;45.478;9.224;2023-07-28T09:03:09;13.43;;;5.07;;
50128;SDS011;36026;45.478;9.224;2023-07-28T09:06:11;10.23;;;4.40;;
50128;SDS011;36026;45.478;9.224;2023-07-28T09:09:13;10.45;;;4.18;;
50128;SDS011;36026;45.478;9.224;2023-07-28T09:12:14;10.52;;;4.40;;
50128;SDS011;36026;45.478;9.224;2023-07-28T09:15:16;9.50;;;4.50;;
50128;SDS011;36026;45.478;9.224;2023-07-28T09:18:19;9.85;;;4.03;;
50128;SDS011;36026;45.478;9.224;2023-07-28T09:21:22;9.90;;;3.80;;
50128;SDS011;36026;45.478;9.224;2023-07-28T09:24:28;10.68;;;4.20;;
50128;SDS011;36026;45.478;9.224;2023-07-28T09:27:31;11.50;;;3.30;;
50128;SDS011;36026;45.478;9.224;2023-07-28T09:30:45;6.72;;;2.95;;
50128;SDS011;36026;45.478;9.224;2023-07-28T09:33:49;12.38;;;3.25;;
50128;SDS011;36026;45.478;9.224;2023-07-28T09:36:50;10.45;;;2.97;;
50128;SDS011;36026;45.478;9.224;2023-07-28T09:39:52;11.17;;;2.37;;
50128;SDS011;36026;45.478;9.224;2023-07-28T09:42:53;5.97;;;2.55;;
50128;SDS011;36026;45.478;9.224;2023-07-28T09:45:55;6.43;;;2.53;;
50128;SDS011;36026;45.478;9.224;2023-07-28T09:48:59;5.05;;;2.35;;
50128;SDS011;36026;45.478;9.224;2023-07-28T09:52:03;3.75;;;2.42;;
50128;SDS011;36026;45.478;9.224;2023-07-28T09:55:05;5.00;;;2.03;;
50128;SDS011;36026;45.478;9.224;2023-07-28T10:01:09;7.13;;;2.05;;
50128;SDS011;36026;45.478;9.224;2023-07-28T10:04:12;7.45;;;2.83;;
50128;SDS011;36026;45.478;9.224;2023-07-28T10:07:15;5.97;;;2.00;;
50128;SDS011;36026;45.478;9.224;2023-07-28T10:10:16;5.22;;;2.13;;
50128;SDS011;36026;45.478;9.224;2023-07-28T10:13:19;5.72;;;2.35;;
50128;SDS011;36026;45.478;9.224;2023-07-28T10:16:29;4.68;;;2.10;;
50128;SDS011;36026;45.478;9.224;2023-07-28T10:19:34;5.47;;;2.30;;
50128;SDS011;36026;45.478;9.224;2023-07-28T10:22:42;4.75;;;1.85;;
50128;SDS011;36026;45.478;9.224;2023-07-28T10:25:44;4.78;;;1.83;;
50128;SDS011;36026;45.478;9.224;2023-07-28T10:28:46;4.10;;;2.03;;
50128;SDS011;36026;45.478;9.224;2023-07-28T10:31:51;3.88;;;1.90;;
50128;SDS011;36026;45.478;9.224;2023-07-28T10:34:59;5.60;;;2.20;;
50128;SDS011;36026;45.478;9.224;2023-07-28T10:41:21;6.10;;;1.90;;
50128;SDS011;36026;45.478;9.224;2023-07-28T10:44:23;4.70;;;1.75;;
50128;SDS011;36026;45.478;9.224;2023-07-28T10:47:24;3.50;;;1.92;;
50128;SDS011;36026;45.478;9.224;2023-07-28T10:50:28;3.40;;;1.83;;
50128;SDS011;36026;45.478;9.224;2023-07-28T10:53:31;3.80;;;1.88;;
50128;SDS011;36026;45.478;9.224;2023-07-28T10:59:35;4.72;;;1.65;;
50128;SDS011;36026;45.478;9.224;2023-07-28T11:02:37;3.70;;;1.90;;
50128;SDS011;36026;45.478;9.224;2023-07-28T11:05:39;6.38;;;2.15;;
50128;SDS011;36026;45.478;9.224;2023-07-28T11:08:42;3.60;;;1.77;;
50128;SDS011;36026;45.478;9.224;2023-07-28T11:11:44;6.25;;;1.73;;
50128;SDS011;36026;45.478;9.224;2023-07-28T11:14:45;3.58;;;1.63;;
50128;SDS011;36026;45.478;9.224;2023-07-28T11:17:47;3.90;;;1.80;;
50128;SDS011;36026;45.478;9.224;2023-07-28T11:20:50;5.85;;;2.05;;
50128;SDS011;36026;45.478;9.224;2023-07-28T11:23:51;3.92;;;2.15;;
50128;SDS011;36026;45.478;9.224;2023-07-28T11:26:53;6.70;;;2.03;;
50128;SDS011;36026;45.478;9.224;2023-07-28T11:29:55;6.28;;;1.83;;
50128;SDS011;36026;45.478;9.224;2023-07-28T11:32:57;3.85;;;1.85;;
50128;SDS011;36026;45.478;9.224;2023-07-28T11:36:00;4.07;;;2.35;;
50128;SDS011;36026;45.478;9.224;2023-07-28T11:39:01;4.97;;;1.80;;
50128;SDS011;36026;45.478;9.224;2023-07-28T11:42:06;4.45;;;1.88;;
50128;SDS011;36026;45.478;9.224;2023-07-28T11:45:08;4.03;;;1.77;;
50128;SDS011;36026;45.478;9.224;2023-07-28T11:51:13;2.92;;;1.58;;
50128;SDS011;36026;45.478;9.224;2023-07-28T11:54:16;3.58;;;2.00;;
50128;SDS011;36026;45.478;9.224;2023-07-28T11:57:20;4.35;;;1.98;;
50128;SDS011;36026;45.478;9.224;2023-07-28T12:03:29;5.82;;;2.00;;
50128;SDS011;36026;45.478;9.224;2023-07-28T12:06:32;3.38;;;2.03;;
50128;SDS011;36026;45.478;9.224;2023-07-28T12:09:47;3.00;;;1.98;;
50128;SDS011;36026;45.478;9.224;2023-07-28T12:12:49;3.92;;;2.05;;
50128;SDS011;36026;45.478;9.224;2023-07-28T12:15:50;4.88;;;1.70;;
50128;SDS011;36026;45.478;9.224;2023-07-28T12:18:57;7.25;;;2.03;;
50128;SDS011;36026;45.478;9.224;2023-07-28T12:22:00;3.22;;;1.70;;
50128;SDS011;36026;45.478;9.224;2023-07-28T12:25:01;5.50;;;1.90;;
50128;SDS011;36026;45.478;9.224;2023-07-28T12:28:04;2.70;;;1.42;;
50128;SDS011;36026;45.478;9.224;2023-07-28T12:31:06;3.53;;;1.70;;
50128;SDS011;36026;45.478;9.224;2023-07-28T12:34:07;6.22;;;2.00;;
50128;SDS011;36026;45.478;9.224;2023-07-28T12:37:10;2.90;;;1.50;;
50128;SDS011;36026;45.478;9.224;2023-07-28T12:40:12;3.92;;;1.98;;
50128;SDS011;36026;45.478;9.224;2023-07-28T12:43:13;4.68;;;2.22;;
50128;SDS011;36026;45.478;9.224;2023-07-28T12:46:15;3.92;;;1.70;;
50128;SDS011;36026;45.478;9.224;2023-07-28T12:49:16;3.85;;;1.88;;
50128;SDS011;36026;45.478;9.224;2023-07-28T12:52:21;3.85;;;1.90;;
50128;SDS011;36026;45.478;9.224;2023-07-28T12:55:22;4.22;;;1.90;;
50128;SDS011;36026;45.478;9.224;2023-07-28T12:58:44;3.38;;;1.60;;
50128;SDS011;36026;45.478;9.224;2023-07-28T13:01:48;4.20;;;1.92;;
50128;SDS011;36026;45.478;9.224;2023-07-28T13:04:49;3.30;;;1.75;;
50128;SDS011;36026;45.478;9.224;2023-07-28T13:07:52;2.75;;;2.00;;
50128;SDS011;36026;45.478;9.224;2023-07-28T13:10:53;2.50;;;1.75;;
50128;SDS011;36026;45.478;9.224;2023-07-28T13:13:55;3.53;;;2.00;;
50128;SDS011;36026;45.478;9.224;2023-07-28T13:19:58;4.88;;;1.88;;
50128;SDS011;36026;45.478;9.224;2023-07-28T13:23:01;7.10;;;1.95;;
50128;SDS011;36026;45.478;9.224;2023-07-28T13:26:02;2.72;;;1.65;;
50128;SDS011;36026;45.478;9.224;2023-07-28T13:29:04;4.00;;;1.83;;
50128;SDS011;36026;45.478;9.224;2023-07-28T13:32:15;3.25;;;1.63;;
50128;SDS011;36026;45.478;9.224;2023-07-28T13:35:16;3.85;;;1.70;;
50128;SDS011;36026;45.478;9.224;2023-07-28T13:38:19;3.03;;;1.70;;
50128;SDS011;36026;45.478;9.224;2023-07-28T13:41:21;3.58;;;1.88;;
50128;SDS011;36026;45.478;9.224;2023-07-28T13:44:22;3.45;;;1.80;;
50128;SDS011;36026;45.478;9.224;2023-07-28T13:47:23;6.68;;;2.10;;
50128;SDS011;36026;45.478;9.224;2023-07-28T13:50:25;2.45;;;1.40;;
50128;SDS011;36026;45.478;9.224;2023-07-28T13:53:28;3.78;;;1.85;;
50128;SDS011;36026;45.478;9.224;2023-07-28T13:56:29;2.80;;;1.52;;
50128;SDS011;36026;45.478;9.224;2023-07-28T13:59:31;2.78;;;1.75;;
50128;SDS011;36026;45.478;9.224;2023-07-28T14:02:32;4.68;;;1.80;;
50128;SDS011;36026;45.478;9.224;2023-07-28T14:05:34;3.00;;;2.00;;
50128;SDS011;36026;45.478;9.224;2023-07-28T14:08:36;3.58;;;2.00;;
50128;SDS011;36026;45.478;9.224;2023-07-28T14:11:38;3.03;;;2.00;;
50128;SDS011;36026;45.478;9.224;2023-07-28T14:14:39;3.13;;;1.63;;
50128;SDS011;36026;45.478;9.224;2023-07-28T14:17:41;5.22;;;2.15;;
50128;SDS011;36026;45.478;9.224;2023-07-28T14:23:45;4.53;;;1.97;;
50128;SDS011;36026;45.478;9.224;2023-07-28T14:26:48;6.28;;;1.70;;
50128;SDS011;36026;45.478;9.224;2023-07-28T14:29:50;7.07;;;1.95;;
50128;SDS011;36026;45.478;9.224;2023-07-28T14:32:51;5.25;;;2.05;;
50128;SDS011;36026;45.478;9.224;2023-07-28T14:35:53;4.43;;;1.83;;
50128;SDS011;36026;45.478;9.224;2023-07-28T14:38:56;5.77;;;1.87;;
50128;SDS011;36026;45.478;9.224;2023-07-28T14:41:57;2.40;;;1.85;;
50128;SDS011;36026;45.478;9.224;2023-07-28T14:44:59;3.47;;;2.03;;
50128;SDS011;36026;45.478;9.224;2023-07-28T14:48:01;2.83;;;2.00;;
50128;SDS011;36026;45.478;9.224;2023-07-28T14:54:05;4.00;;;2.00;;
50128;SDS011;36026;45.478;9.224;2023-07-28T14:57:07;4.15;;;2.35;;
50128;SDS011;36026;45.478;9.224;2023-07-28T15:00:14;8.32;;;1.98;;
50128;SDS011;36026;45.478;9.224;2023-07-28T15:03:15;5.55;;;1.98;;
50128;SDS011;36026;45.478;9.224;2023-07-28T15:06:17;3.25;;;2.00;;
50128;SDS011;36026;45.478;9.224;2023-07-28T15:09:20;2.95;;;1.80;;
50128;SDS011;36026;45.478;9.224;2023-07-28T15:12:23;5.10;;;2.47;;
50128;SDS011;36026;45.478;9.224;2023-07-28T15:15:25;3.40;;;2.00;;
50128;SDS011;36026;45.478;9.224;2023-07-28T15:18:26;7.95;;;2.30;;
50128;SDS011;36026;45.478;9.224;2023-07-28T15:21:28;4.90;;;1.80;;
50128;SDS011;36026;45.478;9.224;2023-07-28T15:24:31;3.17;;;1.83;;
50128;SDS011;36026;45.478;9.224;2023-07-28T15:27:32;5.20;;;2.35;;
50128;SDS011;36026;45.478;9.224;2023-07-28T15:30:34;3.47;;;2.10;;
50128;SDS011;36026;45.478;9.224;2023-07-28T15:33:35;5.50;;;2.30;;
50128;SDS011;36026;45.478;9.224;2023-07-28T15:36:36;6.00;;;2.03;;
50128;SDS011;36026;45.478;9.224;2023-07-28T15:39:39;4.85;;;2.20;;
50128;SDS011;36026;45.478;9.224;2023-07-28T15:42:41;4.13;;;2.03;;
50128;SDS011;36026;45.478;9.224;2023-07-28T15:45:42;3.58;;;2.08;;
50128;SDS011;36026;45.478;9.224;2023-07-28T15:48:44;4.13;;;2.28;;
50128;SDS011;36026;45.478;9.224;2023-07-28T15:51:47;4.55;;;2.05;;
50128;SDS011;36026;45.478;9.224;2023-07-28T15:54:50;4.97;;;2.63;;
50128;SDS011;36026;45.478;9.224;2023-07-28T15:57:51;4.90;;;2.22;;
50128;SDS011;36026;45.478;9.224;2023-07-28T16:00:53;7.00;;;2.42;;
50128;SDS011;36026;45.478;9.224;2023-07-28T16:03:55;6.95;;;2.00;;
50128;SDS011;36026;45.478;9.224;2023-07-28T16:06:57;6.18;;;2.40;;
50128;SDS011;36026;45.478;9.224;2023-07-28T16:10:00;6.72;;;2.50;;
50128;SDS011;36026;45.478;9.224;2023-07-28T16:13:01;5.07;;;2.20;;
50128;SDS011;36026;45.478;9.224;2023-07-28T16:16:03;4.18;;;1.92;;
50128;SDS011;36026;45.478;9.224;2023-07-28T16:19:04;4.53;;;2.20;;
50128;SDS011;36026;45.478;9.224;2023-07-28T16:22:06;4.20;;;2.10;;
50128;SDS011;36026;45.478;9.224;2023-07-28T16:25:09;6.07;;;2.28;;
50128;SDS011;36026;45.478;9.224;2023-07-28T16:28:10;3.05;;;1.90;;
50128;SDS011;36026;45.478;9.224;2023-07-28T16:31:12;4.65;;;2.35;;
50128;SDS011;36026;45.478;9.224;2023-07-28T16:34:13;4.20;;;2.03;;
50128;SDS011;36026;45.478;9.224;2023-07-28T16:37:14;4.60;;;2.60;;
50128;SDS011;36026;45.478;9.224;2023-07-28T16:40:17;4.28;;;2.13;;
50128;SDS011;36026;45.478;9.224;2023-07-28T16:43:19;4.25;;;2.20;;
50128;SDS011;36026;45.478;9.224;2023-07-28T16:46:20;4.45;;;2.20;;
50128;SDS011;36026;45.478;9.224;2023-07-28T16:49:22;4.97;;;2.10;;
50128;SDS011;36026;45.478;9.224;2023-07-28T16:52:23;5.70;;;2.22;;
50128;SDS011;36026;45.478;9.224;2023-07-28T16:55:28;4.00;;;2.30;;
50128;SDS011;36026;45.478;9.224;2023-07-28T16:58:29;4.30;;;2.30;;
50128;SDS011;36026;45.478;9.224;2023-07-28T17:01:31;3.58;;;2.03;;
50128;SDS011;36026;45.478;9.224;2023-07-28T17:04:32;6.95;;;2.20;;
50128;SDS011;36026;45.478;9.224;2023-07-28T17:07:34;7.25;;;2.80;;
50128;SDS011;36026;45.478;9.224;2023-07-28T17:10:37;3.72;;;2.63;;
50128;SDS011;36026;45.478;9.224;2023-07-28T17:16:39;3.20;;;2.00;;
50128;SDS011;36026;45.478;9.224;2023-07-28T17:19:41;4.75;;;2.55;;
50128;SDS011;36026;45.478;9.224;2023-07-28T17:22:42;4.32;;;2.35;;
50128;SDS011;36026;45.478;9.224;2023-07-28T17:25:45;4.90;;;2.35;;
50128;SDS011;36026;45.478;9.224;2023-07-28T17:31:48;5.00;;;2.60;;
50128;SDS011;36026;45.478;9.224;2023-07-28T17:34:49;4.72;;;2.40;;
50128;SDS011;36026;45.478;9.224;2023-07-28T17:37:51;6.43;;;2.28;;
50128;SDS011;36026;45.478;9.224;2023-07-28T17:40:53;5.95;;;2.60;;
50128;SDS011;36026;45.478;9.224;2023-07-28T17:46:56;5.20;;;2.38;;
50128;SDS011;36026;45.478;9.224;2023-07-28T17:49:57;4.30;;;2.40;;
50128;SDS011;36026;45.478;9.224;2023-07-28T17:52:59;4.97;;;2.20;;
50128;SDS011;36026;45.478;9.224;2023-07-28T17:56:02;5.68;;;2.65;;
50128;SDS011;36026;45.478;9.224;2023-07-28T18:02:05;5.53;;;2.30;;
50128;SDS011;36026;45.478;9.224;2023-07-28T18:05:06;7.93;;;2.90;;
50128;SDS011;36026;45.478;9.224;2023-07-28T18:08:09;5.65;;;2.58;;
50128;SDS011;36026;45.478;9.224;2023-07-28T18:11:13;5.85;;;2.03;;
50128;SDS011;36026;45.478;9.224;2023-07-28T18:14:14;4.15;;;2.55;;
50128;SDS011;36026;45.478;9.224;2023-07-28T18:17:16;5.07;;;2.55;;
50128;SDS011;36026;45.478;9.224;2023-07-28T18:20:21;5.18;;;2.70;;
50128;SDS011;36026;45.478;9.224;2023-07-28T18:23:23;11.48;;;2.97;;
50128;SDS011;36026;45.478;9.224;2023-07-28T18:26:25;9.32;;;2.63;;
50128;SDS011;36026;45.478;9.224;2023-07-28T18:29:27;7.07;;;1.92;;
50128;SDS011;36026;45.478;9.224;2023-07-28T18:32:28;3.92;;;2.10;;
50128;SDS011;36026;45.478;9.224;2023-07-28T18:35:30;6.88;;;2.50;;
50128;SDS011;36026;45.478;9.224;2023-07-28T18:38:31;4.20;;;2.30;;
50128;SDS011;36026;45.478;9.224;2023-07-28T18:41:34;4.18;;;2.22;;
50128;SDS011;36026;45.478;9.224;2023-07-28T18:44:36;6.20;;;2.97;;
50128;SDS011;36026;45.478;9.224;2023-07-28T18:47:37;7.10;;;2.30;;
50128;SDS011;36026;45.478;9.224;2023-07-28T18:50:39;7.57;;;2.60;;
50128;SDS011;36026;45.478;9.224;2023-07-28T18:53:41;7.90;;;2.77;;
50128;SDS011;36026;45.478;9.224;2023-07-28T18:56:45;7.43;;;2.47;;
50128;SDS011;36026;45.478;9.224;2023-07-28T18:59:47;5.45;;;2.45;;
50128;SDS011;36026;45.478;9.224;2023-07-28T19:02:48;6.18;;;2.67;;
50128;SDS011;36026;45.478;9.224;2023-07-28T19:05:54;7.22;;;3.00;;